• Join FlightAware (Why Join?)
  • Login
  • US Flag 
07:28PM EDT


 

Airport Tracker/Info


-or-


 

Live Flight TrackerFlight Track Log ✈ SWA1291 ✈ 06-Jun-2014 ✈ KBWI - KMHT

Flight Track Log - Related Links

Times and Time Zones

All times are in EDT time to prevent confusion due to time zone crossing. See the SWA1291 flight status page for this flight to view local times or setup timezone preferences in your user account.

Time Position Orientation Groundspeed Altitude Reporting Facility
EDT Latitude Longitude Course Direction KTS MPH feet Rate Location/Type
09:29PM 39.1833 -76.7000 247° West 165 190 1,100  Level Potomac TRACON
09:30PM 39.1667 -76.7500 247° West 192 221 3,300 2,100 Climbing Potomac TRACON
09:32PM 39.1133 -76.5975 114° Southeast 263 303 7,600 2,280 Climbing Washington Center
09:33PM 39.1247 -76.4906 82° East 269 310 10,300 1,860 Climbing Washington Center
09:34PM 39.1339 -76.3675 84° East 304 350 11,400 1,560 Climbing Washington Center
09:35PM 39.1514 -76.2206 81° East 351 404 13,400 2,160 Climbing Washington Center
09:36PM 39.1686 -76.0817 81° East 413 475 15,800 2,580 Climbing Washington Center
09:37PM 39.2275 -75.9481 60° Northeast 429 494 18,600 2,460 Climbing Washington Center
09:38PM 39.3278 -75.8572 35° Northeast 416 479 20,700 1,980 Climbing Washington Center
09:39PM 39.4322 -75.7500 38° Northeast 436 502 22,700 1,920 Climbing Washington Center
09:40PM 39.5386 -75.6428 38° Northeast 468 539 24,700 1,740 Climbing Washington Center
09:41PM 39.6489 -75.5322 38° Northeast 488 562 26,200 1,560 Climbing Washington Center
09:42PM 39.7633 -75.4161 38° Northeast 506 582 27,900 1,620 Climbing Washington Center
09:43PM 39.8758 -75.3022 38° Northeast 511 588 29,600 1,620 Climbing Washington Center
09:44PM 39.9567 -75.2231 37° Northeast 515 593 30,700 1,500 Climbing New York Center
09:44PM 40.0694 -75.1000 40° Northeast 515 593 32,100 1,740 Climbing New York Center
09:46PM 40.1842 -74.9822 38° Northeast 521 600 34,200 1,500 Climbing New York Center
09:47PM 40.3044 -74.8861 31° Northeast 521 600 35,200 960 Climbing New York Center
09:47PM 40.4397 -74.8286 18° North 502 578 36,200 900 Climbing New York Center
09:49PM 40.5731 -74.7708 18° North 502 578 37,000 360 Climbing New York Center
09:50PM 40.7064 -74.7103 19° North 502 578 37,000 -60 Level New York Center
09:51PM 40.8397 -74.6494 19° North 502 578 36,900 -720 Descending New York Center
09:52PM 41.0744 -74.5547 17° North 500 575 35,200 -720 Descending Boston Center
09:53PM 41.2033 -74.4972 19° North 495 570 35,000 -120 Descending Boston Center
09:54PM 41.3267 -74.4433 18° North 493 567 35,000  Level Boston Center
09:55PM 41.4525 -74.3878 18° North 493 567 35,000  Level Boston Center
09:56PM 41.5725 -74.3061 27° Northeast 488 562 35,000 -300 Level Boston Center
09:57PM 41.6642 -74.1639 49° Northeast 502 578 34,400 -840 Descending Boston Center
09:58PM 41.7683 -73.9956 50° Northeast 492 566 33,300 -1,740 Descending Boston Center
09:59PM 41.8428 -73.8736 51° Northeast 479 551 30,900 -2,880 Descending Boston Center
10:00PM 41.9267 -73.7389 50° Northeast 475 547 27,500 -2,640 Descending Boston Center
10:02PM 42.0956 -73.4625 59° Northeast 450 518 23,000 -1,500 Descending Boston Center
10:03PM 42.1664 -73.3447 51° Northeast 452 520 23,000  Level Boston Center
10:04PM 42.2631 -73.1858 51° Northeast 456 525 23,000 -180 Level Boston Center
10:05PM 42.3436 -73.0522 51° Northeast 459 528 22,700 -660 Descending Boston Center
10:06PM 42.4192 -72.9256 51° Northeast 462 532 21,700 -1,020 Descending Boston Center
10:07PM 42.4831 -72.7761 60° Northeast 460 529 20,700 -1,020 Descending Boston Center
10:08PM 42.5439 -72.6264 61° Northeast 458 527 19,700 -1,680 Descending Boston Center
10:09PM 42.5994 -72.4872 61° Northeast 437 503 17,300 -2,700 Descending Boston Center
10:10PM 42.6539 -72.3506 62° Northeast 419 482 14,300 -2,820 Descending Boston Center
10:11PM 42.7119 -72.1975 63° Northeast 393 452 11,600 -1,680 Descending Boston Center
10:13PM 42.7208 -72.0542 85° East 384 442 10,900 -780 Descending Boston Center
10:14PM 42.7278 -71.9289 86° East 336 387 10,100 -1,080 Descending Boston Center
10:15PM 42.7342 -71.8144 86° East 288 331 8,800 -1,620 Descending Boston Center
10:16PM 42.7389 -71.7044 87° East 290 334 6,900 -1,920 Descending Boston Center
10:17PM 42.7653 -71.6036 70° East 282 325 5,000 -1,380 Descending Boston Center
10:18PM 42.7958 -71.5150 65° Northeast 259 298 4,100 -1,080 Descending Boston Center
10:19PM 42.8231 -71.4347 65° Northeast 238 274 2,900 -1,260 Descending Boston Center
10:20PM 42.8606 -71.3867 43° Northeast 197 227 1,600 -1,020 Descending Boston Center
10:21PM 42.8953 -71.4117 332° Northwest 142 163 900 -600 Descending Boston Center
10:22PM 42.9269 -71.4306 336° Northwest 135 155 400 -540 Descending Boston Center
10:24PM 42.9167 -71.4333 316° Northwest  Level FlightAware Approximate